ADDS METAR Data INFO
IDs: Format: Raw Decoded Include TAF

Data at: 1718 UTC 23 Oct 2017

KSMQ 231653Z AUTO 17009KT 10SM FEW035 BKN050 OVC060 23/17 A3018 RMK AO2 SLP219 T02330167
KSMQ 231553Z AUTO VRB03KT 10SM FEW026 SCT031 OVC055 22/18 A3021 RMK AO2 SLP231 T02220178
KSMQ 231508Z AUTO VRB04KT 10SM SCT015 OVC060 21/17 A3023 RMK AO2 T02060172
KSMQ 231453Z AUTO VRB03KT 10SM BKN013 OVC060 20/17 A3024 RMK AO2 SLP239 T02000172 58014
KSMQ 231408Z AUTO VRB04KT 10SM BKN010 OVC055 19/18 A3026 RMK AO2 CIG 008V014 T01940178
KSMQ 231353Z AUTO 18005KT 8SM OVC008 18/17 A3026 RMK AO2 SLP247 T01830172
KSMQ 231253Z AUTO 7SM OVC007 17/15 A3028 RMK AO2 SLP253 T01670150
KSMQ 231202Z AUTO VRB03KT 5SM BR OVC009 14/13 A3028 RMK AO2 T01440133
KSMQ 231153Z AUTO 6SM BR OVC010 14/13 A3028 RMK AO2 SLP253 T01390133 10139 20089 56008
KSMQ 231120Z AUTO 00000KT 8SM OVC010 14/13 A3028 RMK AO2 T01390128
KSMQ 231053Z AUTO 00000KT 6SM BR OVC008 13/13 A3029 RMK AO2 SLP256 T01330128
KSMQ 231038Z AUTO 00000KT 7SM OVC008 13/12 A3029 RMK AO2 CIG 005V011 T01330122
KSMQ 231012Z AUTO 00000KT 8SM OVC005 13/12 A3029 RMK AO2 T01280117
KSMQ 230953Z AUTO 00000KT 10SM OVC004 13/12 A3029 RMK AO2 SLP258 T01280117
KSMQ 230853Z AUTO 00000KT 10SM OVC004 12/11 A3030 RMK AO2 SLP261 T01170106 58003
KSMQ 230820Z AUTO 00000KT 10SM OVC004 12/11 A3031 RMK AO2 T01170106
KSMQ 230753Z AUTO 00000KT 10SM OVC006 11/10 A3031 RMK AO2 SLP263 T01110100
KSMQ 230723Z AUTO 00000KT 10SM OVC006 10/09 A3031 RMK AO2 T01000094
KSMQ 230710Z AUTO 00000KT 10SM BKN008 09/09 A3031 RMK AO2 T00940089
KSMQ 230653Z AUTO 00000KT 10SM FEW008 BKN025 10/09 A3031 RMK AO2 SLP264 T01000089
KSMQ 230651Z AUTO 00000KT 10SM FEW008 BKN025 10/09 A3031 RMK AO2
KSMQ 230626Z AUTO 33003KT 10SM BKN024 09/08 A3032 RMK AO2 T00890083
KSMQ 230553Z AUTO 00000KT 10SM FEW022 09/09 A3032 RMK AO2 SLP268 T00940089 10139 20089 58012
KSMQ 230505Z AUTO 00000KT 10SM SCT027 09/09 A3034 RMK AO2 T00940089
KSMQ 230453Z AUTO 31003KT 10SM BKN026 10/09 A3035 RMK AO2 SLP275 T01000089 402560039
KSMQ 230353Z AUTO 00000KT 10SM BKN020 10/09 A3036 RMK AO2 SLP281 T01000094
KSMQ 230253Z AUTO 33003KT 10SM CLR 10/09 A3036 RMK AO2 SLP280 T01000094 51007
KSMQ 230153Z AUTO 00000KT 10SM CLR 11/10 A3036 RMK AO2 SLP280 T01110100
KSMQ 230053Z AUTO 00000KT 10SM CLR 13/11 A3034 RMK AO2 SLP275 T01280106
KSMQ 222353Z AUTO 00000KT 10SM CLR 14/10 A3034 RMK AO2 SLP275 T01390100 10256 20133 53007
KSMQ 222253Z AUTO 00000KT 10SM CLR 16/09 A3032 RMK AO2 SLP268 T01560094
KSMQ 222153Z AUTO 00000KT 10SM CLR 20/09 A3032 RMK AO2 SLP267 T02000094
KSMQ 222053Z AUTO 17005KT 10SM CLR 23/08 A3032 RMK AO2 SLP267 T02330083 56011
KSMQ 221953Z AUTO 18006KT 10SM CLR 25/08 A3032 RMK AO2 SLP269 T02500083
KSMQ 221853Z AUTO 20005KT 10SM CLR 25/07 A3033 RMK AO2 SLP270 T02500072
KSMQ 221753Z AUTO VRB06KT 10SM CLR 24/09 A3035 RMK AO2 SLP278 T02440089 10250 20050 58015
KSMQ 221653Z AUTO 00000KT 10SM CLR 24/11 A3037 RMK AO2 SLP284 T02390106
KSMQ 221553Z AUTO 20003KT 9SM CLR 22/10 A3038 RMK AO2 SLP288 T02170100
KSMQ 221453Z AUTO 00000KT 10SM CLR 18/10 A3039 RMK AO2 SLP293 T01780100 58000
KSMQ 221353Z AUTO 00000KT 10SM CLR 13/10 A3040 RMK AO2 SLP294 T01330100
KSMQ 221253Z AUTO 00000KT 10SM CLR 08/07 A3041 RMK AO2 SLP297 T00830072
KSMQ 221153Z AUTO 10SM CLR 05/05 A3039 RMK AO2 SLP294 T00500050 10061 20039 53015
KSMQ 221053Z AUTO 00000KT 10SM CLR 04/04 A3037 RMK AO2 SLP286 T00440039
KSMQ 220953Z AUTO 00000KT 10SM CLR 04/04 A3036 RMK AO2 SLP282 T00440044
KSMQ 220853Z AUTO 00000KT 9SM CLR 05/04 A3035 RMK AO2 SLP278 T00500044 53001
KSMQ 220753Z AUTO 00000KT 10SM CLR 06/05 A3035 RMK AO2 SLP277 T00560050
KSMQ 220653Z AUTO 33003KT 9SM CLR 06/06 A3035 RMK AO2 SLP276 T00560056
KSMQ 220553Z AUTO 00000KT 10SM CLR 06/06 A3035 RMK AO2 SLP277 T00610061 10128 20061 50002